createdAt,value
2023-04-26T00:00:33.600Z,98506.56
2023-04-26T00:03:08.959Z,98501.44
2023-04-26T00:05:40.676Z,98510.19
2023-04-26T00:08:20.437Z,98502.38
2023-04-26T00:10:49.786Z,98492.13
2023-04-26T00:13:18.965Z,98489.53
2023-04-26T00:15:48.392Z,98492.91
2023-04-26T00:18:17.777Z,98483.59
2023-04-26T00:23:29.592Z,98478.91
2023-04-26T00:26:04.452Z,98479.81
2023-04-26T00:28:34.145Z,98448.34
2023-04-26T00:31:03.642Z,98477.22
2023-04-26T00:33:33.285Z,98470.22
2023-04-26T00:36:23.374Z,98486.50
2023-04-26T00:38:54.920Z,98474.31
2023-04-26T00:41:29.531Z,98477.59
2023-04-26T00:43:58.898Z,98462.06
2023-04-26T00:46:29.132Z,98456.94
2023-04-26T00:48:59.425Z,98460.19
2023-04-26T00:51:45.719Z,98453.28
2023-04-26T00:54:15.679Z,98455.03
2023-04-26T00:56:45.872Z,98425.53
2023-04-26T00:59:21.988Z,98447.53
2023-04-26T01:01:51.684Z,98448.41
2023-04-26T01:04:42.001Z,98441.59
2023-04-26T01:07:14.072Z,98442.31
2023-04-26T01:09:43.379Z,98438.00
2023-04-26T01:12:13.539Z,98419.91
2023-04-26T01:17:25.602Z,98429.66
2023-04-26T01:20:05.130Z,98425.13
2023-04-26T01:22:38.170Z,98422.59
2023-04-26T01:25:29.865Z,98412.31
2023-04-26T01:27:59.289Z,98413.13
2023-04-26T01:30:28.609Z,98414.91
2023-04-26T01:32:57.947Z,98408.03
2023-04-26T01:35:28.167Z,98404.47
2023-04-26T01:38:09.790Z,98393.03
2023-04-26T01:40:39.130Z,98386.16
2023-04-26T01:43:08.524Z,98386.44
2023-04-26T01:45:37.888Z,98375.25
2023-04-26T01:48:25.735Z,98385.72
2023-04-26T01:51:00.183Z,98372.06
2023-04-26T01:53:31.488Z,98370.41
2023-04-26T01:56:03.698Z,98372.81
2023-04-26T01:58:33.654Z,98375.63
2023-04-26T02:01:08.227Z,98370.31
2023-04-26T02:03:56.434Z,98359.97
2023-04-26T02:06:26.164Z,98358.34
2023-04-26T02:08:57.353Z,98363.63
2023-04-26T02:11:48.248Z,98354.88
2023-04-26T02:14:17.673Z,98356.63
2023-04-26T02:16:46.989Z,98355.66
2023-04-26T02:19:16.667Z,98347.72
2023-04-26T02:21:57.541Z,98342.66
2023-04-26T02:24:41.052Z,98345.50
2023-04-26T02:27:10.436Z,98342.28
2023-04-26T02:29:43.881Z,98344.34
2023-04-26T02:32:34.783Z,98333.88
2023-04-26T02:35:04.897Z,98339.97
2023-04-26T02:37:35.590Z,98333.88
2023-04-26T02:40:10.599Z,98324.53
2023-04-26T02:42:45.032Z,98326.81
2023-04-26T02:45:14.816Z,98321.94
2023-04-26T02:47:44.522Z,98329.34
2023-04-26T02:50:14.108Z,98279.97
2023-04-26T02:52:50.222Z,98317.19
2023-04-26T02:55:21.935Z,98315.63
2023-04-26T02:57:51.481Z,98317.53
2023-04-26T03:00:20.826Z,98296.91
2023-04-26T03:02:50.367Z,98326.13
2023-04-26T03:05:20.607Z,98313.84
2023-04-26T03:07:49.885Z,98324.06
2023-04-26T03:10:21.213Z,98327.47
2023-04-26T03:12:50.718Z,98313.47
2023-04-26T03:15:20.211Z,98315.19
2023-04-26T03:17:49.566Z,98310.25
2023-04-26T03:20:19.143Z,98304.19
2023-04-26T03:22:53.614Z,98302.16
2023-04-26T03:25:24.869Z,98308.03
2023-04-26T03:27:55.110Z,98287.38
2023-04-26T03:30:24.552Z,98292.63
2023-04-26T03:35:30.599Z,98290.69
2023-04-26T03:38:01.020Z,98287.22
2023-04-26T03:40:37.283Z,98285.50
2023-04-26T03:43:06.639Z,98293.28
2023-04-26T03:45:36.367Z,98295.81
2023-04-26T03:48:15.887Z,98288.91
2023-04-26T03:50:46.691Z,98287.75
2023-04-26T03:53:16.373Z,98285.06
2023-04-26T03:55:48.934Z,98279.78
2023-04-26T04:00:59.066Z,98284.53
2023-04-26T04:03:30.008Z,98279.22
2023-04-26T04:06:04.500Z,98277.91
2023-04-26T04:08:33.855Z,98276.50
2023-04-26T04:11:11.821Z,98275.34
2023-04-26T04:13:42.053Z,98253.75
2023-04-26T04:16:16.361Z,98271.09
2023-04-26T04:18:46.179Z,98263.84
2023-04-26T04:21:16.116Z,98245.72
2023-04-26T04:23:51.825Z,98270.06
2023-04-26T04:26:23.216Z,98259.69
2023-04-26T04:31:29.757Z,98268.00
2023-04-26T04:34:05.579Z,98268.91
2023-04-26T04:36:38.462Z,98270.06
2023-04-26T04:39:13.305Z,98264.22
2023-04-26T04:41:47.989Z,98257.66
2023-04-26T04:44:19.682Z,98260.19
2023-04-26T04:46:54.664Z,98263.03
2023-04-26T04:49:24.643Z,98268.81
2023-04-26T04:51:54.067Z,98258.06
2023-04-26T04:54:24.521Z,98257.09
2023-04-26T04:56:57.172Z,98261.13
2023-04-26T04:59:27.957Z,98247.88
2023-04-26T05:02:03.058Z,98254.56
2023-04-26T05:04:34.768Z,98257.38
2023-04-26T05:07:17.980Z,98263.34
2023-04-26T05:09:47.598Z,98257.66
2023-04-26T05:12:24.024Z,98249.72
2023-04-26T05:14:53.942Z,98259.25
2023-04-26T05:17:23.490Z,98247.00
2023-04-26T05:19:54.110Z,98263.47
2023-04-26T05:22:24.163Z,98262.63
2023-04-26T05:24:59.348Z,98255.03
2023-04-26T05:27:32.636Z,98254.28
2023-04-26T05:30:18.537Z,98251.69
2023-04-26T05:33:10.691Z,98251.91
2023-04-26T05:35:49.273Z,98255.78
2023-04-26T05:38:30.439Z,98240.34
2023-04-26T05:41:05.213Z,98256.09
2023-04-26T05:43:36.561Z,98252.25
2023-04-26T05:46:06.625Z,98262.38
2023-04-26T05:48:35.948Z,98253.94
2023-04-26T05:51:05.218Z,98259.72
2023-04-26T05:53:39.652Z,98261.56
2023-04-26T05:56:30.428Z,98258.00
2023-04-26T05:59:02.130Z,98249.19
2023-04-26T06:01:31.457Z,98249.94
2023-04-26T06:04:01.961Z,98270.91
2023-04-26T06:06:43.847Z,98240.59
2023-04-26T06:09:13.565Z,98266.16
2023-04-26T06:11:43.598Z,98266.47
2023-04-26T06:14:29.384Z,98266.31
2023-04-26T06:17:11.442Z,98266.56
2023-04-26T06:19:40.829Z,98273.28
2023-04-26T06:22:10.068Z,98250.00
2023-04-26T06:24:39.602Z,98270.41
2023-04-26T06:27:09.367Z,98268.75
2023-04-26T06:29:43.385Z,98261.25
2023-04-26T06:32:12.986Z,98265.59
2023-04-26T06:34:43.665Z,98268.53
2023-04-26T06:37:13.352Z,98260.97
2023-04-26T06:39:45.318Z,98267.44
2023-04-26T06:42:15.444Z,98272.63
2023-04-26T06:45:13.989Z,98273.06
2023-04-26T06:47:43.704Z,98270.22
2023-04-26T06:50:13.795Z,98237.75
2023-04-26T06:52:43.510Z,98265.56
2023-04-26T06:55:12.977Z,98268.16
2023-04-26T06:57:43.217Z,98272.91
2023-04-26T07:00:15.915Z,98279.53
2023-04-26T07:02:50.560Z,98280.03
2023-04-26T07:05:20.128Z,98285.44
2023-04-26T07:07:49.692Z,98277.78
2023-04-26T07:10:25.702Z,98288.44
2023-04-26T07:12:59.996Z,98283.38
2023-04-26T07:15:32.992Z,98281.09
2023-04-26T07:18:02.491Z,98279.47
2023-04-26T07:20:31.958Z,98287.78
2023-04-26T07:23:11.394Z,98289.63
2023-04-26T07:25:46.654Z,98285.25
2023-04-26T07:28:15.982Z,98287.38
2023-04-26T07:30:47.320Z,98280.38
2023-04-26T07:33:16.701Z,98285.94
2023-04-26T07:35:57.590Z,98309.78
2023-04-26T07:38:27.455Z,98295.91
2023-04-26T07:40:58.036Z,98302.00
2023-04-26T07:43:34.398Z,98302.38
2023-04-26T07:46:05.774Z,98310.38
2023-04-26T07:48:35.339Z,98302.53
2023-04-26T07:51:10.196Z,98312.53
2023-04-26T07:53:44.704Z,98302.47
2023-04-26T07:56:14.930Z,98314.41
2023-04-26T07:58:44.567Z,98305.81
2023-04-26T08:01:16.812Z,98312.97
2023-04-26T08:03:47.273Z,98307.69
2023-04-26T08:06:16.964Z,98322.22
2023-04-26T08:08:53.401Z,98312.97
2023-04-26T08:11:22.887Z,98313.88
2023-04-26T08:13:52.461Z,98311.28
2023-04-26T08:16:23.899Z,98320.63
2023-04-26T08:19:02.361Z,98321.59
2023-04-26T08:21:32.344Z,98306.16
2023-04-26T08:24:01.545Z,98319.69
2023-04-26T08:26:37.566Z,98331.59
2023-04-26T08:29:11.861Z,98339.63
2023-04-26T08:34:18.261Z,98343.41
2023-04-26T08:36:47.653Z,98330.00
2023-04-26T08:39:17.474Z,98337.94
2023-04-26T08:41:51.889Z,98323.72
2023-04-26T08:44:25.305Z,98331.28
2023-04-26T08:47:05.017Z,98315.56
2023-04-26T08:49:43.193Z,98331.53
2023-04-26T08:52:14.413Z,98335.34
2023-04-26T08:54:44.162Z,98332.38
2023-04-26T08:57:14.319Z,98329.13
2023-04-26T08:59:48.977Z,98340.50
2023-04-26T09:02:22.765Z,98345.78
2023-04-26T09:04:53.311Z,98331.19
2023-04-26T09:07:24.379Z,98331.28
2023-04-26T09:09:56.553Z,98346.94
2023-04-26T09:12:26.394Z,98346.63
2023-04-26T09:14:56.138Z,98359.47
2023-04-26T09:17:32.693Z,98358.94
2023-04-26T09:20:07.746Z,98348.28
2023-04-26T09:22:39.383Z,98357.00
2023-04-26T09:25:10.236Z,98363.53
2023-04-26T09:27:41.634Z,98347.91
2023-04-26T09:30:15.363Z,98352.22
2023-04-26T09:32:58.547Z,98362.63
2023-04-26T09:35:30.695Z,98360.59
2023-04-26T09:38:13.835Z,98352.66
2023-04-26T09:40:59.156Z,98359.63
2023-04-26T09:43:28.758Z,98331.47
2023-04-26T09:46:00.518Z,98365.81
2023-04-26T09:48:34.200Z,98361.50
2023-04-26T09:51:22.231Z,98377.00
2023-04-26T09:53:52.027Z,98374.28
2023-04-26T09:56:22.329Z,98378.00
2023-04-26T09:59:00.860Z,98353.50
2023-04-26T10:01:36.311Z,98382.19
2023-04-26T10:04:13.197Z,98369.97
2023-04-26T10:06:42.639Z,98383.88
2023-04-26T10:09:12.175Z,98374.94
2023-04-26T10:11:41.933Z,98391.75
2023-04-26T10:14:17.217Z,98360.88
2023-04-26T10:16:52.621Z,98384.72
2023-04-26T10:19:25.329Z,98383.41
2023-04-26T10:21:59.394Z,98408.13
2023-04-26T10:24:30.434Z,98409.16
2023-04-26T10:30:10.430Z,98398.47
2023-04-26T10:33:18.843Z,98418.47
2023-04-26T10:36:06.556Z,98418.06
2023-04-26T10:38:36.902Z,98415.84
2023-04-26T10:41:31.259Z,98420.78
2023-04-26T10:44:02.575Z,98411.81
2023-04-26T10:46:45.884Z,98424.03
2023-04-26T10:49:17.272Z,98436.84
2023-04-26T10:54:57.130Z,98432.72
2023-04-26T10:57:42.129Z,98430.81
2023-04-26T11:00:38.656Z,98424.28
2023-04-26T11:03:09.226Z,98429.09
2023-04-26T11:05:56.319Z,98433.47
2023-04-26T11:08:32.775Z,98450.41
2023-04-26T11:11:10.745Z,98450.09
2023-04-26T11:13:46.459Z,98452.22
2023-04-26T11:16:17.132Z,98451.47
2023-04-26T11:18:56.674Z,98428.03
2023-04-26T11:21:28.364Z,98436.41
2023-04-26T11:26:36.350Z,98458.44
2023-04-26T11:29:05.672Z,98462.81
2023-04-26T11:31:39.966Z,98459.22
2023-04-26T11:34:09.629Z,98460.78
2023-04-26T11:36:45.598Z,98446.25
2023-04-26T11:39:17.419Z,98461.38
2023-04-26T11:41:46.375Z,98471.31
2023-04-26T11:44:19.757Z,98469.69
2023-04-26T11:46:50.674Z,98465.59
2023-04-26T11:49:20.388Z,98477.78
2023-04-26T11:51:53.000Z,98401.84
2023-04-26T11:54:35.412Z,98467.41
2023-04-26T11:57:17.343Z,98468.09
2023-04-26T11:59:47.757Z,98469.31
2023-04-26T12:02:17.109Z,98475.66
2023-04-26T12:04:46.920Z,98479.00
2023-04-26T12:07:21.272Z,98481.31
2023-04-26T12:09:52.661Z,98469.81
2023-04-26T12:12:25.355Z,98488.22
2023-04-26T12:14:54.750Z,98489.13
2023-04-26T12:17:24.072Z,98490.44
2023-04-26T12:19:53.938Z,98496.69
2023-04-26T12:22:23.708Z,98485.16
2023-04-26T12:25:07.035Z,98491.59
2023-04-26T12:27:36.520Z,98494.66
2023-04-26T12:30:06.880Z,98493.09
2023-04-26T12:35:11.723Z,98457.56
2023-04-26T12:37:40.988Z,98494.09
2023-04-26T12:40:14.351Z,98489.13
2023-04-26T12:42:43.717Z,98468.22
2023-04-26T12:51:56.412Z,98478.25
2023-04-26T12:54:27.065Z,98506.22
2023-04-26T12:56:56.609Z,98494.91
2023-04-26T12:59:25.960Z,98511.59
2023-04-26T13:02:01.298Z,98519.63
2023-04-26T13:04:30.749Z,98483.38
2023-04-26T13:09:42.657Z,98514.13
2023-04-26T13:12:11.966Z,98497.16
2023-04-26T13:14:48.380Z,98513.88
2023-04-26T13:17:17.875Z,98515.31
2023-04-26T13:19:47.484Z,98489.78
2023-04-26T13:22:19.256Z,98517.59
2023-04-26T13:24:49.230Z,98502.16
2023-04-26T13:27:18.871Z,98525.66
2023-04-26T13:29:48.206Z,98516.53
2023-04-26T13:32:17.377Z,98492.28
2023-04-26T13:34:47.212Z,98498.56
2023-04-26T13:37:20.869Z,98526.91
2023-04-26T13:39:50.641Z,98534.16
2023-04-26T13:42:20.269Z,98525.38
2023-04-26T13:44:49.651Z,98536.22
2023-04-26T13:47:19.060Z,98529.28
2023-04-26T13:49:54.291Z,98524.84
2023-04-26T13:52:26.193Z,98504.00
2023-04-26T13:55:02.844Z,98522.22
2023-04-26T13:57:33.542Z,98529.16
2023-04-26T14:00:14.525Z,98527.34
2023-04-26T14:02:43.875Z,98522.03
2023-04-26T14:05:15.256Z,98526.78
2023-04-26T14:07:46.837Z,98533.53
2023-04-26T14:10:21.290Z,98525.28
2023-04-26T14:12:50.820Z,98502.44
2023-04-26T14:15:20.056Z,98538.28
2023-04-26T14:17:49.753Z,98517.50
2023-04-26T14:20:19.270Z,98547.91
2023-04-26T14:22:50.830Z,98536.09
2023-04-26T14:25:20.383Z,98538.63
2023-04-26T14:27:51.814Z,98570.66
2023-04-26T14:30:24.166Z,98563.00
2023-04-26T14:32:53.573Z,98567.88
2023-04-26T14:35:22.938Z,98502.59
2023-04-26T14:37:54.381Z,98525.19
2023-04-26T14:40:26.361Z,98561.22
2023-04-26T14:45:43.546Z,98574.72
2023-04-26T14:48:13.970Z,98581.75
2023-04-26T14:50:43.483Z,98585.28
2023-04-26T14:53:14.874Z,98580.25
2023-04-26T14:55:44.418Z,98590.50
2023-04-26T14:58:22.031Z,98582.78
2023-04-26T15:00:52.389Z,98565.94
2023-04-26T15:03:22.736Z,98575.84
2023-04-26T15:05:57.670Z,98565.41
2023-04-26T15:08:29.776Z,98567.75
2023-04-26T15:10:59.199Z,98571.19
2023-04-26T15:13:28.365Z,98593.34
2023-04-26T15:16:09.257Z,98588.63
2023-04-26T15:18:38.486Z,98579.25
2023-04-26T15:21:08.243Z,98593.59
2023-04-26T15:23:40.055Z,98590.09
2023-04-26T15:26:09.331Z,98600.03
2023-04-26T15:28:43.680Z,98607.06
2023-04-26T15:31:13.159Z,98601.94
2023-04-26T15:33:42.787Z,98616.06
2023-04-26T15:36:12.351Z,98608.16
2023-04-26T15:38:45.003Z,98619.69
2023-04-26T15:41:14.272Z,98620.94
2023-04-26T15:43:44.142Z,98627.06
2023-04-26T15:46:16.556Z,98626.75
2023-04-26T15:48:46.336Z,98609.38
2023-04-26T15:51:15.974Z,98641.78
2023-04-26T15:53:47.265Z,98629.47
2023-04-26T15:56:17.462Z,98633.28
2023-04-26T15:58:47.042Z,98639.63
2023-04-26T16:01:16.991Z,98643.25
2023-04-26T16:03:47.888Z,98645.94
2023-04-26T16:06:17.607Z,98650.34
2023-04-26T16:08:48.946Z,98656.44
2023-04-26T16:11:18.434Z,98649.53
2023-04-26T16:13:51.404Z,98659.78
2023-04-26T16:16:22.401Z,98655.59
2023-04-26T16:18:52.060Z,98661.69
2023-04-26T16:21:21.399Z,98664.59
2023-04-26T16:23:58.506Z,98664.00
2023-04-26T16:26:28.487Z,98668.69
2023-04-26T16:28:57.620Z,98673.28
2023-04-26T16:31:27.228Z,98670.78
2023-04-26T16:33:56.469Z,98666.00
2023-04-26T16:36:32.701Z,98666.88
2023-04-26T16:39:03.870Z,98675.88
2023-04-26T16:41:33.182Z,98672.19
2023-04-26T16:44:07.406Z,98678.88
2023-04-26T16:46:36.932Z,98684.59
2023-04-26T16:49:09.215Z,98690.63
2023-04-26T16:51:38.963Z,98682.47
2023-04-26T16:54:10.257Z,98701.53
2023-04-26T16:56:49.905Z,98699.28
2023-04-26T16:59:20.393Z,98705.72
2023-04-26T17:01:50.233Z,98703.50
2023-04-26T17:04:19.814Z,98702.53
2023-04-26T17:06:54.256Z,98701.44
2023-04-26T17:09:30.821Z,98700.03
2023-04-26T17:12:05.229Z,98709.53
2023-04-26T17:14:34.531Z,98716.41
2023-04-26T17:17:03.840Z,98726.09
2023-04-26T17:19:33.225Z,98708.22
2023-04-26T17:22:02.689Z,98725.97
2023-04-26T17:24:33.849Z,98717.47
2023-04-26T17:27:04.133Z,98734.44
2023-04-26T17:29:33.336Z,98737.97
2023-04-26T17:32:04.117Z,98746.94
2023-04-26T17:34:33.752Z,98734.75
2023-04-26T17:37:03.057Z,98745.22
2023-04-26T17:39:34.420Z,98744.25
2023-04-26T17:42:04.623Z,98733.53
2023-04-26T17:44:34.010Z,98755.28
2023-04-26T17:47:03.462Z,98766.88
2023-04-26T17:49:32.740Z,98762.13
2023-04-26T17:52:02.067Z,98766.16
2023-04-26T17:54:33.942Z,98776.78
2023-04-26T17:57:03.992Z,98776.13
2023-04-26T17:59:33.189Z,98779.50
2023-04-26T18:02:07.860Z,98770.88
2023-04-26T18:04:37.526Z,98779.94
2023-04-26T18:07:07.359Z,98784.03
2023-04-26T18:09:38.410Z,98786.59
2023-04-26T18:12:07.994Z,98784.88
2023-04-26T18:14:43.976Z,98795.28
2023-04-26T18:17:14.857Z,98786.81
2023-04-26T18:19:50.655Z,98793.47
2023-04-26T18:22:20.074Z,98801.22
2023-04-26T18:24:51.477Z,98796.97
2023-04-26T18:27:21.069Z,98792.75
2023-04-26T18:29:50.838Z,98804.88
2023-04-26T18:32:20.156Z,98806.84
2023-04-26T18:34:49.508Z,98806.25
2023-04-26T18:37:19.796Z,98791.94
2023-04-26T18:39:51.044Z,98809.94
2023-04-26T18:42:20.971Z,98783.00
2023-04-26T18:44:50.282Z,98811.31
2023-04-26T18:47:28.879Z,98819.63
2023-04-26T18:50:04.101Z,98819.16
2023-04-26T18:52:38.795Z,98820.22
2023-04-26T18:55:11.350Z,98817.63
2023-04-26T18:57:40.946Z,98824.59
2023-04-26T19:00:11.575Z,98817.78
2023-04-26T19:02:41.849Z,98829.00
2023-04-26T19:07:53.919Z,98830.59
2023-04-26T19:10:31.165Z,98832.69
2023-04-26T19:13:00.432Z,98828.38
2023-04-26T19:15:29.825Z,98829.22
2023-04-26T19:17:59.329Z,98839.72
2023-04-26T19:20:29.260Z,98839.41
2023-04-26T19:22:58.622Z,98827.22
2023-04-26T19:25:30.115Z,98845.16
2023-04-26T19:28:02.555Z,98837.63
2023-04-26T19:30:32.079Z,98843.78
2023-04-26T19:33:01.427Z,98833.59
2023-04-26T19:35:30.819Z,98851.19
2023-04-26T19:38:00.193Z,98843.47
2023-04-26T19:40:30.007Z,98853.06
2023-04-26T19:43:01.271Z,98851.44
2023-04-26T19:45:37.619Z,98859.41
2023-04-26T19:48:10.438Z,98861.41
2023-04-26T19:50:43.777Z,98837.03
2023-04-26T19:53:18.279Z,98862.53
2023-04-26T19:55:48.433Z,98862.00
2023-04-26T19:58:24.839Z,98861.09
2023-04-26T20:00:54.255Z,98865.44
2023-04-26T20:03:23.925Z,98863.00
2023-04-26T20:05:53.555Z,98852.84
2023-04-26T20:08:22.737Z,98878.25
2023-04-26T20:10:57.854Z,98880.84
2023-04-26T20:13:41.113Z,98889.66
2023-04-26T20:16:10.622Z,98873.81
2023-04-26T20:18:40.323Z,98893.50
2023-04-26T20:21:09.881Z,98883.25
2023-04-26T20:23:39.462Z,98890.94
2023-04-26T20:26:08.910Z,98903.09
2023-04-26T20:28:45.635Z,98911.03
2023-04-26T20:31:14.763Z,98914.63
2023-04-26T20:33:46.901Z,98915.75
2023-04-26T20:36:17.291Z,98906.03
2023-04-26T20:38:46.705Z,98919.81
2023-04-26T20:41:16.135Z,98918.88
2023-04-26T20:43:47.631Z,98913.66
2023-04-26T20:46:22.574Z,98907.44
2023-04-26T20:48:52.148Z,98916.94
2023-04-26T20:51:21.353Z,98923.84
2023-04-26T20:54:00.748Z,98927.53
2023-04-26T20:56:30.207Z,98931.28
2023-04-26T20:59:08.457Z,98927.88
2023-04-26T21:01:38.083Z,98930.63
2023-04-26T21:04:12.521Z,98938.31
2023-04-26T21:06:42.001Z,98947.59
2023-04-26T21:09:11.488Z,98945.94
2023-04-26T21:11:50.906Z,98942.44
2023-04-26T21:14:22.339Z,98936.69
2023-04-26T21:16:51.647Z,98942.75
2023-04-26T21:19:25.987Z,98947.16
2023-04-26T21:21:55.533Z,98918.78
2023-04-26T21:24:24.892Z,98963.06
2023-04-26T21:26:54.238Z,98943.00
2023-04-26T21:29:25.531Z,98966.31
2023-04-26T21:31:55.131Z,98963.03
2023-04-26T21:34:31.093Z,98967.34
2023-04-26T21:37:00.474Z,98965.63
2023-04-26T21:39:37.090Z,98966.59
2023-04-26T21:42:06.671Z,98950.47
2023-04-26T21:44:44.599Z,98971.59
2023-04-26T21:47:13.978Z,98945.19
2023-04-26T21:49:43.069Z,98965.50
2023-04-26T21:52:12.360Z,98980.31
2023-04-26T21:54:41.846Z,98967.53
2023-04-26T21:57:11.262Z,98960.75
2023-04-26T21:59:41.944Z,98972.59
2023-04-26T22:02:13.306Z,98972.63
2023-04-26T22:04:47.570Z,98985.72
2023-04-26T22:07:17.048Z,98970.53
2023-04-26T22:09:46.371Z,98975.72
2023-04-26T22:12:20.715Z,98973.25
2023-04-26T22:14:50.060Z,98981.88
2023-04-26T22:17:21.276Z,98983.47
2023-04-26T22:19:50.623Z,98977.50
2023-04-26T22:22:20.197Z,98972.25
2023-04-26T22:24:54.524Z,98986.78
2023-04-26T22:27:23.924Z,98981.59
2023-04-26T22:29:53.051Z,98985.97
2023-04-26T22:32:30.431Z,98985.06
2023-04-26T22:34:59.740Z,98982.72
2023-04-26T22:37:28.893Z,98982.34
2023-04-26T22:40:04.075Z,98966.00
2023-04-26T22:42:33.378Z,98994.41
2023-04-26T22:45:02.531Z,98995.53
2023-04-26T22:47:35.690Z,99001.69
2023-04-26T22:50:05.216Z,98999.75
2023-04-26T22:52:37.500Z,99002.94
2023-04-26T22:55:07.742Z,98993.47
2023-04-26T22:57:37.189Z,99006.31
2023-04-26T23:00:09.214Z,98998.81
2023-04-26T23:02:45.831Z,99008.97
2023-04-26T23:05:15.269Z,99010.75
2023-04-26T23:07:44.782Z,99016.75
2023-04-26T23:10:14.472Z,99020.28
2023-04-26T23:12:44.560Z,99011.88
2023-04-26T23:15:14.081Z,98980.72
2023-04-26T23:17:53.471Z,99013.81
2023-04-26T23:20:22.776Z,99010.44
2023-04-26T23:22:52.124Z,99015.63
2023-04-26T23:25:22.437Z,99022.53
2023-04-26T23:27:51.727Z,99019.25
2023-04-26T23:30:26.539Z,99025.34
2023-04-26T23:32:57.806Z,99027.16
2023-04-26T23:35:27.170Z,99022.94
2023-04-26T23:37:56.268Z,99024.88
2023-04-26T23:40:25.383Z,99028.25
2023-04-26T23:42:59.937Z,99031.72
2023-04-26T23:45:29.227Z,99035.22
2023-04-26T23:48:00.483Z,99046.22
2023-04-26T23:50:29.822Z,99043.47
2023-04-26T23:52:59.169Z,99046.72
2023-04-26T23:55:33.521Z,99047.47
2023-04-26T23:58:02.658Z,99044.19
